sensor_id;sensor_type;location;lat;lon;timestamp;pressure;altitude;pressure_sealevel;temperature;humidity
31761;BME280;18335;51.486;7.562;2022-10-28T00:01:25;100487.50;;;19.23;100.00
31761;BME280;18335;51.486;7.562;2022-10-28T00:03:53;100487.94;;;19.27;100.00
31761;BME280;18335;51.486;7.562;2022-10-28T00:06:22;100485.41;;;19.25;100.00
31761;BME280;18335;51.486;7.562;2022-10-28T00:08:50;100484.53;;;19.25;100.00
31761;BME280;18335;51.486;7.562;2022-10-28T00:11:19;100473.25;;;19.26;100.00
31761;BME280;18335;51.486;7.562;2022-10-28T00:13:46;100490.91;;;19.32;100.00
31761;BME280;18335;51.486;7.562;2022-10-28T00:16:15;100482.19;;;19.28;100.00
31761;BME280;18335;51.486;7.562;2022-10-28T00:18:43;100471.13;;;19.35;100.00
31761;BME280;18335;51.486;7.562;2022-10-28T00:21:11;100481.75;;;19.31;100.00
31761;BME280;18335;51.486;7.562;2022-10-28T00:23:38;100484.75;;;19.23;100.00
31761;BME280;18335;51.486;7.562;2022-10-28T00:26:06;100472.63;;;19.18;100.00
31761;BME280;18335;51.486;7.562;2022-10-28T00:28:39;100473.47;;;19.12;100.00
31761;BME280;18335;51.486;7.562;2022-10-28T00:31:07;100470.72;;;19.12;100.00
31761;BME280;18335;51.486;7.562;2022-10-28T00:33:34;100479.06;;;19.05;100.00
31761;BME280;18335;51.486;7.562;2022-10-28T00:36:09;100468.81;;;19.19;100.00
31761;BME280;18335;51.486;7.562;2022-10-28T00:38:37;100470.94;;;19.10;100.00
31761;BME280;18335;51.486;7.562;2022-10-28T00:41:04;100470.50;;;19.13;100.00
31761;BME280;18335;51.486;7.562;2022-10-28T00:43:38;100470.50;;;19.20;100.00
31761;BME280;18335;51.486;7.562;2022-10-28T00:46:12;100466.66;;;19.27;100.00
31761;BME280;18335;51.486;7.562;2022-10-28T00:48:42;100469.59;;;19.32;100.00
31761;BME280;18335;51.486;7.562;2022-10-28T00:51:10;100464.94;;;19.40;100.00
31761;BME280;18335;51.486;7.562;2022-10-28T00:53:38;100458.34;;;19.34;100.00
31761;BME280;18335;51.486;7.562;2022-10-28T00:56:06;100454.09;;;19.38;100.00
31761;BME280;18335;51.486;7.562;2022-10-28T00:58:36;100459.22;;;19.41;100.00
31761;BME280;18335;51.486;7.562;2022-10-28T01:01:03;100456.44;;;19.28;100.00
31761;BME280;18335;51.486;7.562;2022-10-28T01:03:30;100448.16;;;19.41;100.00
31761;BME280;18335;51.486;7.562;2022-10-28T01:05:57;100441.09;;;19.45;100.00
31761;BME280;18335;51.486;7.562;2022-10-28T01:08:25;100442.19;;;19.44;100.00
31761;BME280;18335;51.486;7.562;2022-10-28T01:14:16;100436.22;;;19.41;100.00
31761;BME280;18335;51.486;7.562;2022-10-28T01:16:52;100435.75;;;19.37;100.00
31761;BME280;18335;51.486;7.562;2022-10-28T01:19:52;100429.19;;;19.38;100.00
31761;BME280;18335;51.486;7.562;2022-10-28T01:22:24;100430.00;;;19.39;100.00
31761;BME280;18335;51.486;7.562;2022-10-28T01:25:05;100423.25;;;19.41;100.00
31761;BME280;18335;51.486;7.562;2022-10-28T01:28:08;100428.78;;;19.41;100.00
31761;BME280;18335;51.486;7.562;2022-10-28T01:31:11;100422.97;;;19.56;100.00
31761;BME280;18335;51.486;7.562;2022-10-28T01:33:43;100425.28;;;19.59;100.00
31761;BME280;18335;51.486;7.562;2022-10-28T01:36:14;100412.69;;;19.63;100.00
31761;BME280;18335;51.486;7.562;2022-10-28T01:38:48;100410.34;;;19.66;100.00
31761;BME280;18335;51.486;7.562;2022-10-28T01:41:23;100404.38;;;19.63;100.00
31761;BME280;18335;51.486;7.562;2022-10-28T01:43:56;100410.06;;;19.74;100.00
31761;BME280;18335;51.486;7.562;2022-10-28T01:46:29;100402.59;;;19.81;100.00
31761;BME280;18335;51.486;7.562;2022-10-28T01:48:59;100397.94;;;19.75;100.00
31761;BME280;18335;51.486;7.562;2022-10-28T01:51:30;100399.56;;;19.89;100.00
31761;BME280;18335;51.486;7.562;2022-10-28T01:54:01;100402.53;;;19.95;100.00
31761;BME280;18335;51.486;7.562;2022-10-28T01:56:32;100413.78;;;20.00;100.00
31761;BME280;18335;51.486;7.562;2022-10-28T01:59:02;100417.00;;;19.97;100.00
31761;BME280;18335;51.486;7.562;2022-10-28T02:01:32;100420.34;;;20.05;100.00
31761;BME280;18335;51.486;7.562;2022-10-28T02:04:00;100422.09;;;20.00;100.00
31761;BME280;18335;51.486;7.562;2022-10-28T02:06:28;100412.41;;;19.77;100.00
31761;BME280;18335;51.486;7.562;2022-10-28T02:09:07;100409.19;;;19.80;100.00
31761;BME280;18335;51.486;7.562;2022-10-28T02:11:49;100408.16;;;19.75;100.00
31761;BME280;18335;51.486;7.562;2022-10-28T02:14:28;100400.81;;;19.94;100.00
31761;BME280;18335;51.486;7.562;2022-10-28T02:17:05;100395.72;;;19.91;100.00
31761;BME280;18335;51.486;7.562;2022-10-28T02:19:38;100396.00;;;19.82;100.00
31761;BME280;18335;51.486;7.562;2022-10-28T02:22:16;100395.56;;;19.85;100.00
31761;BME280;18335;51.486;7.562;2022-10-28T02:24:49;100396.31;;;19.99;100.00
31761;BME280;18335;51.486;7.562;2022-10-28T02:27:28;100388.44;;;19.96;100.00
31761;BME280;18335;51.486;7.562;2022-10-28T02:30:01;100380.31;;;20.01;100.00
31761;BME280;18335;51.486;7.562;2022-10-28T02:32:33;100384.59;;;19.97;100.00
31761;BME280;18335;51.486;7.562;2022-10-28T02:35:06;100389.66;;;20.07;100.00
31761;BME280;18335;51.486;7.562;2022-10-28T02:37:35;100379.81;;;20.11;100.00
31761;BME280;18335;51.486;7.562;2022-10-28T02:40:08;100394.84;;;19.97;100.00
31761;BME280;18335;51.486;7.562;2022-10-28T02:42:41;100393.91;;;20.09;100.00
31761;BME280;18335;51.486;7.562;2022-10-28T02:45:12;100390.91;;;20.11;100.00
31761;BME280;18335;51.486;7.562;2022-10-28T02:47:44;100385.81;;;20.08;100.00
31761;BME280;18335;51.486;7.562;2022-10-28T02:50:16;100387.13;;;19.99;100.00
31761;BME280;18335;51.486;7.562;2022-10-28T02:52:48;100400.81;;;19.94;100.00
31761;BME280;18335;51.486;7.562;2022-10-28T02:55:17;100395.75;;;19.84;100.00
31761;BME280;18335;51.486;7.562;2022-10-28T02:57:46;100394.06;;;19.83;100.00
31761;BME280;18335;51.486;7.562;2022-10-28T03:00:15;100392.78;;;19.85;100.00
31761;BME280;18335;51.486;7.562;2022-10-28T03:02:45;100393.00;;;19.84;100.00
31761;BME280;18335;51.486;7.562;2022-10-28T03:05:12;100380.16;;;19.89;100.00
31761;BME280;18335;51.486;7.562;2022-10-28T03:07:39;100377.03;;;19.86;100.00
31761;BME280;18335;51.486;7.562;2022-10-28T03:10:07;100373.19;;;19.80;100.00
31761;BME280;18335;51.486;7.562;2022-10-28T03:12:34;100368.53;;;19.74;100.00
31761;BME280;18335;51.486;7.562;2022-10-28T03:15:01;100376.16;;;19.85;100.00
31761;BME280;18335;51.486;7.562;2022-10-28T03:17:28;100374.72;;;19.76;100.00
31761;BME280;18335;51.486;7.562;2022-10-28T03:19:56;100376.69;;;19.69;100.00
31761;BME280;18335;51.486;7.562;2022-10-28T03:22:23;100373.47;;;19.72;100.00
31761;BME280;18335;51.486;7.562;2022-10-28T03:24:49;100365.16;;;19.72;100.00
31761;BME280;18335;51.486;7.562;2022-10-28T03:27:16;100368.97;;;19.71;100.00
31761;BME280;18335;51.486;7.562;2022-10-28T03:29:43;100364.66;;;19.88;100.00
31761;BME280;18335;51.486;7.562;2022-10-28T03:32:10;100363.44;;;19.71;100.00
31761;BME280;18335;51.486;7.562;2022-10-28T03:34:36;100351.47;;;19.77;100.00
31761;BME280;18335;51.486;7.562;2022-10-28T03:37:04;100359.22;;;19.69;100.00
31761;BME280;18335;51.486;7.562;2022-10-28T03:39:31;100357.75;;;19.60;100.00
31761;BME280;18335;51.486;7.562;2022-10-28T03:41:58;100353.09;;;19.60;100.00
31761;BME280;18335;51.486;7.562;2022-10-28T03:44:24;100352.03;;;19.61;100.00
31761;BME280;18335;51.486;7.562;2022-10-28T03:46:51;100352.81;;;19.68;100.00
31761;BME280;18335;51.486;7.562;2022-10-28T03:49:18;100354.69;;;19.74;100.00
31761;BME280;18335;51.486;7.562;2022-10-28T03:51:45;100360.31;;;19.68;100.00
31761;BME280;18335;51.486;7.562;2022-10-28T03:54:13;100354.31;;;19.71;100.00
31761;BME280;18335;51.486;7.562;2022-10-28T03:56:39;100356.69;;;19.67;100.00
31761;BME280;18335;51.486;7.562;2022-10-28T03:59:07;100357.13;;;19.64;100.00
31761;BME280;18335;51.486;7.562;2022-10-28T04:01:34;100358.34;;;19.68;100.00
31761;BME280;18335;51.486;7.562;2022-10-28T04:04:00;100350.31;;;19.60;100.00
31761;BME280;18335;51.486;7.562;2022-10-28T04:06:27;100345.50;;;19.49;100.00
31761;BME280;18335;51.486;7.562;2022-10-28T04:08:54;100353.34;;;19.52;100.00
31761;BME280;18335;51.486;7.562;2022-10-28T04:11:22;100350.19;;;19.42;100.00
31761;BME280;18335;51.486;7.562;2022-10-28T04:13:49;100350.44;;;19.34;100.00
31761;BME280;18335;51.486;7.562;2022-10-28T04:16:15;100344.47;;;19.30;100.00
31761;BME280;18335;51.486;7.562;2022-10-28T04:18:42;100338.50;;;19.33;100.00
31761;BME280;18335;51.486;7.562;2022-10-28T04:21:09;100346.22;;;19.25;100.00
31761;BME280;18335;51.486;7.562;2022-10-28T04:23:35;100348.38;;;19.10;100.00
31761;BME280;18335;51.486;7.562;2022-10-28T04:26:03;100349.88;;;19.06;100.00
31761;BME280;18335;51.486;7.562;2022-10-28T04:28:31;100346.94;;;19.01;100.00
31761;BME280;18335;51.486;7.562;2022-10-28T04:30:58;100346.47;;;19.10;100.00
31761;BME280;18335;51.486;7.562;2022-10-28T04:33:26;100353.06;;;19.09;100.00
31761;BME280;18335;51.486;7.562;2022-10-28T04:35:53;100332.47;;;18.99;100.00
31761;BME280;18335;51.486;7.562;2022-10-28T04:38:20;100320.31;;;19.06;100.00
31761;BME280;18335;51.486;7.562;2022-10-28T04:40:47;100328.69;;;18.87;100.00
31761;BME280;18335;51.486;7.562;2022-10-28T04:43:14;100334.84;;;18.89;100.00
31761;BME280;18335;51.486;7.562;2022-10-28T04:45:42;100342.09;;;18.90;100.00
31761;BME280;18335;51.486;7.562;2022-10-28T04:48:08;100342.31;;;18.82;100.00
31761;BME280;18335;51.486;7.562;2022-10-28T04:50:35;100351.00;;;18.92;100.00
31761;BME280;18335;51.486;7.562;2022-10-28T04:53:09;100351.66;;;18.87;100.00
31761;BME280;18335;51.486;7.562;2022-10-28T04:55:35;100339.56;;;18.82;100.00
31761;BME280;18335;51.486;7.562;2022-10-28T04:58:02;100353.59;;;18.80;100.00
31761;BME280;18335;51.486;7.562;2022-10-28T05:00:29;100354.88;;;18.71;100.00
31761;BME280;18335;51.486;7.562;2022-10-28T05:02:59;100354.63;;;18.79;100.00
31761;BME280;18335;51.486;7.562;2022-10-28T05:05:26;100349.78;;;18.74;100.00
31761;BME280;18335;51.486;7.562;2022-10-28T05:07:53;100346.38;;;18.72;100.00
31761;BME280;18335;51.486;7.562;2022-10-28T05:10:20;100352.28;;;18.83;100.00
31761;BME280;18335;51.486;7.562;2022-10-28T05:12:47;100353.16;;;18.83;100.00
31761;BME280;18335;51.486;7.562;2022-10-28T05:15:14;100346.34;;;18.79;100.00
31761;BME280;18335;51.486;7.562;2022-10-28T05:17:42;100351.00;;;18.85;100.00
31761;BME280;18335;51.486;7.562;2022-10-28T05:20:12;100348.06;;;18.67;100.00
31761;BME280;18335;51.486;7.562;2022-10-28T05:22:44;100348.72;;;18.69;100.00
31761;BME280;18335;51.486;7.562;2022-10-28T05:25:11;100354.69;;;18.72;100.00
31761;BME280;18335;51.486;7.562;2022-10-28T05:27:38;100348.69;;;18.82;100.00
31761;BME280;18335;51.486;7.562;2022-10-28T05:30:06;100354.88;;;18.77;100.00
31761;BME280;18335;51.486;7.562;2022-10-28T05:32:33;100358.06;;;18.68;100.00
31761;BME280;18335;51.486;7.562;2022-10-28T05:34:59;100358.31;;;18.66;100.00
31761;BME280;18335;51.486;7.562;2022-10-28T05:37:27;100355.31;;;18.61;100.00
31761;BME280;18335;51.486;7.562;2022-10-28T05:39:54;100357.88;;;18.63;100.00
31761;BME280;18335;51.486;7.562;2022-10-28T05:42:21;100355.31;;;18.74;100.00
31761;BME280;18335;51.486;7.562;2022-10-28T05:44:48;100361.03;;;18.73;100.00
31761;BME280;18335;51.486;7.562;2022-10-28T05:47:14;100360.41;;;18.64;100.00
31761;BME280;18335;51.486;7.562;2022-10-28T05:49:41;100353.41;;;18.68;100.00
31761;BME280;18335;51.486;7.562;2022-10-28T05:52:08;100369.56;;;18.58;100.00
31761;BME280;18335;51.486;7.562;2022-10-28T05:54:36;100370.84;;;18.75;100.00
31761;BME280;18335;51.486;7.562;2022-10-28T05:57:03;100369.97;;;18.68;100.00
31761;BME280;18335;51.486;7.562;2022-10-28T05:59:29;100372.56;;;18.63;100.00
31761;BME280;18335;51.486;7.562;2022-10-28T06:01:56;100368.94;;;18.69;100.00
31761;BME280;18335;51.486;7.562;2022-10-28T06:04:23;100370.84;;;18.62;100.00
31761;BME280;18335;51.486;7.562;2022-10-28T06:06:53;100368.06;;;18.69;100.00
31761;BME280;18335;51.486;7.562;2022-10-28T06:09:20;100370.59;;;18.77;100.00
31761;BME280;18335;51.486;7.562;2022-10-28T06:11:48;100380.81;;;18.83;100.00
31761;BME280;18335;51.486;7.562;2022-10-28T06:14:14;100378.47;;;18.87;100.00
31761;BME280;18335;51.486;7.562;2022-10-28T06:16:41;100379.50;;;18.86;100.00
31761;BME280;18335;51.486;7.562;2022-10-28T06:19:08;100381.66;;;18.84;100.00
31761;BME280;18335;51.486;7.562;2022-10-28T06:21:34;100382.09;;;18.87;100.00
31761;BME280;18335;51.486;7.562;2022-10-28T06:24:01;100390.19;;;18.75;100.00
31761;BME280;18335;51.486;7.562;2022-10-28T06:26:28;100392.72;;;18.90;100.00
31761;BME280;18335;51.486;7.562;2022-10-28T06:28:56;100387.19;;;18.84;100.00
31761;BME280;18335;51.486;7.562;2022-10-28T06:31:23;100384.38;;;18.97;100.00
31761;BME280;18335;51.486;7.562;2022-10-28T06:33:49;100390.56;;;18.92;100.00
31761;BME280;18335;51.486;7.562;2022-10-28T06:36:16;100388.44;;;18.88;100.00
31761;BME280;18335;51.486;7.562;2022-10-28T06:38:43;100392.28;;;18.93;100.00
31761;BME280;18335;51.486;7.562;2022-10-28T06:41:10;100399.91;;;18.85;100.00
31761;BME280;18335;51.486;7.562;2022-10-28T06:43:36;100409.31;;;18.84;100.00
31761;BME280;18335;51.486;7.562;2022-10-28T06:46:05;100413.34;;;18.74;100.00
31761;BME280;18335;51.486;7.562;2022-10-28T06:48:32;100409.09;;;18.65;100.00
31761;BME280;18335;51.486;7.562;2022-10-28T06:50:58;100420.38;;;18.77;100.00
31761;BME280;18335;51.486;7.562;2022-10-28T06:53:25;100415.25;;;18.81;100.00
31761;BME280;18335;51.486;7.562;2022-10-28T06:55:52;100407.16;;;18.79;100.00
31761;BME280;18335;51.486;7.562;2022-10-28T06:58:19;100402.91;;;18.83;100.00
31761;BME280;18335;51.486;7.562;2022-10-28T07:00:46;100413.13;;;18.83;100.00
31761;BME280;18335;51.486;7.562;2022-10-28T07:03:14;100415.25;;;18.87;100.00
31761;BME280;18335;51.486;7.562;2022-10-28T07:05:41;100412.72;;;18.72;100.00
31761;BME280;18335;51.486;7.562;2022-10-28T07:08:08;100416.97;;;18.82;100.00
31761;BME280;18335;51.486;7.562;2022-10-28T07:10:36;100409.72;;;18.81;100.00
31761;BME280;18335;51.486;7.562;2022-10-28T07:13:02;100407.41;;;18.77;100.00
31761;BME280;18335;51.486;7.562;2022-10-28T07:15:29;100428.66;;;18.84;100.00
31761;BME280;18335;51.486;7.562;2022-10-28T07:17:57;100421.41;;;18.89;100.00
31761;BME280;18335;51.486;7.562;2022-10-28T07:20:26;100418.22;;;18.99;100.00
31761;BME280;18335;51.486;7.562;2022-10-28T07:22:57;100429.69;;;19.02;100.00
31761;BME280;18335;51.486;7.562;2022-10-28T07:25:24;100430.56;;;18.96;100.00
31761;BME280;18335;51.486;7.562;2022-10-28T07:27:51;100430.94;;;19.00;100.00
31761;BME280;18335;51.486;7.562;2022-10-28T07:30:18;100430.09;;;19.06;100.00
31761;BME280;18335;51.486;7.562;2022-10-28T07:32:44;100441.59;;;19.03;100.00
31761;BME280;18335;51.486;7.562;2022-10-28T07:35:11;100433.28;;;19.09;100.00
31761;BME280;18335;51.486;7.562;2022-10-28T07:37:39;100426.09;;;18.95;100.00
31761;BME280;18335;51.486;7.562;2022-10-28T07:40:07;100420.13;;;19.05;100.00
31761;BME280;18335;51.486;7.562;2022-10-28T07:42:34;100424.97;;;19.16;100.00
31761;BME280;18335;51.486;7.562;2022-10-28T07:45:00;100428.78;;;19.15;100.00
31761;BME280;18335;51.486;7.562;2022-10-28T07:47:28;100428.34;;;19.31;100.00
31761;BME280;18335;51.486;7.562;2022-10-28T07:49:55;100418.09;;;19.38;100.00
31761;BME280;18335;51.486;7.562;2022-10-28T07:52:22;100414.28;;;19.39;100.00
31761;BME280;18335;51.486;7.562;2022-10-28T07:54:50;100413.19;;;19.53;100.00
31761;BME280;18335;51.486;7.562;2022-10-28T07:57:17;100438.28;;;19.58;100.00
31761;BME280;18335;51.486;7.562;2022-10-28T07:59:44;100429.28;;;19.69;100.00
31761;BME280;18335;51.486;7.562;2022-10-28T08:02:14;100428.84;;;19.72;100.00
31761;BME280;18335;51.486;7.562;2022-10-28T08:04:42;100425.19;;;19.78;100.00
31761;BME280;18335;51.486;7.562;2022-10-28T08:07:09;100427.25;;;19.89;100.00
31761;BME280;18335;51.486;7.562;2022-10-28T08:09:35;100424.03;;;19.93;100.00
31761;BME280;18335;51.486;7.562;2022-10-28T08:12:04;100425.47;;;20.02;100.00
31761;BME280;18335;51.486;7.562;2022-10-28T08:14:31;100424.84;;;20.00;100.00
31761;BME280;18335;51.486;7.562;2022-10-28T08:16:58;100419.91;;;20.08;100.00
31761;BME280;18335;51.486;7.562;2022-10-28T08:19:25;100422.47;;;20.10;100.00
31761;BME280;18335;51.486;7.562;2022-10-28T08:21:51;100427.34;;;20.08;100.00
31761;BME280;18335;51.486;7.562;2022-10-28T08:24:18;100427.19;;;20.03;100.00
31761;BME280;18335;51.486;7.562;2022-10-28T08:26:45;100428.66;;;20.05;100.00
31761;BME280;18335;51.486;7.562;2022-10-28T08:29:13;100442.91;;;20.09;100.00
31761;BME280;18335;51.486;7.562;2022-10-28T08:31:40;100435.94;;;20.00;100.00
31761;BME280;18335;51.486;7.562;2022-10-28T08:34:07;100440.59;;;20.06;100.00
31761;BME280;18335;51.486;7.562;2022-10-28T08:36:34;100429.22;;;20.14;100.00
31761;BME280;18335;51.486;7.562;2022-10-28T08:39:00;100432.22;;;20.19;100.00
31761;BME280;18335;51.486;7.562;2022-10-28T08:41:34;100439.63;;;20.25;100.00
31761;BME280;18335;51.486;7.562;2022-10-28T08:47:08;100433.88;;;20.20;100.00
31761;BME280;18335;51.486;7.562;2022-10-28T08:49:40;100425.97;;;20.23;100.00
31761;BME280;18335;51.486;7.562;2022-10-28T08:52:18;100423.25;;;20.17;100.00
31761;BME280;18335;51.486;7.562;2022-10-28T08:54:52;100419.00;;;20.14;100.00
31761;BME280;18335;51.486;7.562;2022-10-28T08:57:27;100424.97;;;20.18;100.00
31761;BME280;18335;51.486;7.562;2022-10-28T08:59:58;100421.28;;;20.24;100.00
31761;BME280;18335;51.486;7.562;2022-10-28T09:02:35;100410.66;;;20.27;100.00
31761;BME280;18335;51.486;7.562;2022-10-28T09:05:18;100414.69;;;20.25;100.00
31761;BME280;18335;51.486;7.562;2022-10-28T09:07:46;100407.91;;;20.14;100.00
31761;BME280;18335;51.486;7.562;2022-10-28T09:10:13;100406.66;;;20.10;100.00
31761;BME280;18335;51.486;7.562;2022-10-28T09:12:49;100406.38;;;20.25;100.00
31761;BME280;18335;51.486;7.562;2022-10-28T09:15:27;100406.56;;;20.30;100.00
31761;BME280;18335;51.486;7.562;2022-10-28T09:18:02;100402.91;;;20.36;100.00
31761;BME280;18335;51.486;7.562;2022-10-28T09:20:42;100400.91;;;20.43;100.00
31761;BME280;18335;51.486;7.562;2022-10-28T09:23:18;100393.25;;;20.45;100.00
31761;BME280;18335;51.486;7.562;2022-10-28T09:25:53;100392.94;;;20.53;100.00
31761;BME280;18335;51.486;7.562;2022-10-28T09:28:33;100397.22;;;20.74;100.00
31761;BME280;18335;51.486;7.562;2022-10-28T09:31:08;100392.31;;;20.94;100.00
31761;BME280;18335;51.486;7.562;2022-10-28T09:33:46;100391.19;;;21.02;100.00
31761;BME280;18335;51.486;7.562;2022-10-28T09:36:21;100394.88;;;20.95;100.00
31761;BME280;18335;51.486;7.562;2022-10-28T09:38:50;100391.88;;;20.97;100.00
31761;BME280;18335;51.486;7.562;2022-10-28T09:41:21;100386.88;;;21.06;100.00
31761;BME280;18335;51.486;7.562;2022-10-28T09:43:52;100383.78;;;20.95;100.00
31761;BME280;18335;51.486;7.562;2022-10-28T09:46:22;100382.75;;;21.15;100.00
31761;BME280;18335;51.486;7.562;2022-10-28T09:48:52;100379.59;;;21.11;100.00
31761;BME280;18335;51.486;7.562;2022-10-28T09:51:29;100382.38;;;21.29;100.00
31761;BME280;18335;51.486;7.562;2022-10-28T09:53:59;100384.13;;;21.42;100.00
31761;BME280;18335;51.486;7.562;2022-10-28T09:56:27;100385.75;;;21.49;100.00
31761;BME280;18335;51.486;7.562;2022-10-28T09:58:57;100375.09;;;21.65;100.00
31761;BME280;18335;51.486;7.562;2022-10-28T10:01:27;100380.22;;;21.79;100.00
31761;BME280;18335;51.486;7.562;2022-10-28T10:03:57;100384.41;;;21.88;100.00
31761;BME280;18335;51.486;7.562;2022-10-28T10:06:27;100387.59;;;22.03;100.00
31761;BME280;18335;51.486;7.562;2022-10-28T10:08:56;100385.03;;;22.02;100.00
31761;BME280;18335;51.486;7.562;2022-10-28T10:11:27;100388.22;;;22.17;100.00
31761;BME280;18335;51.486;7.562;2022-10-28T10:13:57;100386.81;;;22.26;100.00
31761;BME280;18335;51.486;7.562;2022-10-28T10:16:33;100378.97;;;22.35;100.00
31761;BME280;18335;51.486;7.562;2022-10-28T10:19:07;100387.19;;;22.41;100.00
31761;BME280;18335;51.486;7.562;2022-10-28T10:21:42;100385.28;;;22.42;100.00
31761;BME280;18335;51.486;7.562;2022-10-28T10:24:23;100381.41;;;22.43;100.00
31761;BME280;18335;51.486;7.562;2022-10-28T10:26:51;100375.38;;;22.46;100.00
31761;BME280;18335;51.486;7.562;2022-10-28T10:29:18;100381.03;;;22.39;100.00
31761;BME280;18335;51.486;7.562;2022-10-28T10:31:46;100386.34;;;22.41;100.00
31761;BME280;18335;51.486;7.562;2022-10-28T10:34:22;100391.59;;;22.49;100.00
31761;BME280;18335;51.486;7.562;2022-10-28T10:36:51;100380.94;;;22.57;100.00
31761;BME280;18335;51.486;7.562;2022-10-28T10:39:24;100394.25;;;22.67;100.00
31761;BME280;18335;51.486;7.562;2022-10-28T10:41:53;100389.69;;;22.84;100.00
31761;BME280;18335;51.486;7.562;2022-10-28T10:44:30;100386.66;;;22.86;100.00
31761;BME280;18335;51.486;7.562;2022-10-28T10:47:19;100382.03;;;23.03;100.00
31761;BME280;18335;51.486;7.562;2022-10-28T10:49:50;100382.56;;;23.11;100.00
31761;BME280;18335;51.486;7.562;2022-10-28T10:52:19;100377.22;;;23.10;100.00
31761;BME280;18335;51.486;7.562;2022-10-28T10:54:57;100376.84;;;23.06;100.00
31761;BME280;18335;51.486;7.562;2022-10-28T10:57:24;100378.28;;;23.09;100.00
31761;BME280;18335;51.486;7.562;2022-10-28T10:59:53;100371.28;;;23.06;100.00
31761;BME280;18335;51.486;7.562;2022-10-28T11:02:23;100369.47;;;23.00;100.00
31761;BME280;18335;51.486;7.562;2022-10-28T11:04:57;100374.78;;;23.13;100.00
31761;BME280;18335;51.486;7.562;2022-10-28T11:07:25;100373.72;;;23.14;100.00
31761;BME280;18335;51.486;7.562;2022-10-28T11:09:53;100362.44;;;23.09;100.00
31761;BME280;18335;51.486;7.562;2022-10-28T11:12:26;100368.25;;;23.20;100.00
31761;BME280;18335;51.486;7.562;2022-10-28T11:14:56;100355.75;;;23.34;100.00
31761;BME280;18335;51.486;7.562;2022-10-28T11:17:25;100355.75;;;23.34;100.00
31761;BME280;18335;51.486;7.562;2022-10-28T11:19:56;100355.25;;;23.37;100.00
31761;BME280;18335;51.486;7.562;2022-10-28T11:22:31;100343.03;;;23.49;100.00
31761;BME280;18335;51.486;7.562;2022-10-28T11:25:16;100345.19;;;23.36;100.00
31761;BME280;18335;51.486;7.562;2022-10-28T11:27:50;100338.78;;;23.47;100.00
31761;BME280;18335;51.486;7.562;2022-10-28T11:30:23;100332.13;;;23.36;100.00
31761;BME280;18335;51.486;7.562;2022-10-28T11:32:58;100334.22;;;23.41;100.00
31761;BME280;18335;51.486;7.562;2022-10-28T11:35:38;100326.00;;;23.62;100.00
31761;BME280;18335;51.486;7.562;2022-10-28T11:38:17;100326.84;;;23.63;100.00
31761;BME280;18335;51.486;7.562;2022-10-28T11:40:57;100321.13;;;23.69;100.00
31761;BME280;18335;51.486;7.562;2022-10-28T11:43:33;100324.50;;;23.72;100.00
31761;BME280;18335;51.486;7.562;2022-10-28T11:46:08;100320.97;;;23.76;100.00
31761;BME280;18335;51.486;7.562;2022-10-28T11:49:04;100317.66;;;24.07;100.00
31761;BME280;18335;51.486;7.562;2022-10-28T11:51:40;100325.78;;;24.09;100.00
31761;BME280;18335;51.486;7.562;2022-10-28T11:54:29;100316.47;;;24.03;100.00
31761;BME280;18335;51.486;7.562;2022-10-28T11:57:06;100313.78;;;24.08;100.00
31761;BME280;18335;51.486;7.562;2022-10-28T11:59:51;100315.78;;;23.96;100.00
31761;BME280;18335;51.486;7.562;2022-10-28T12:02:38;100305.97;;;23.94;100.00
31761;BME280;18335;51.486;7.562;2022-10-28T12:05:16;100304.63;;;23.96;100.00
31761;BME280;18335;51.486;7.562;2022-10-28T12:08:14;100302.19;;;24.00;100.00
31761;BME280;18335;51.486;7.562;2022-10-28T12:10:56;100300.69;;;24.09;100.00
31761;BME280;18335;51.486;7.562;2022-10-28T12:13:32;100300.09;;;24.07;100.00
31761;BME280;18335;51.486;7.562;2022-10-28T12:16:06;100303.34;;;24.15;100.00
31761;BME280;18335;51.486;7.562;2022-10-28T12:18:46;100294.19;;;24.03;100.00
31761;BME280;18335;51.486;7.562;2022-10-28T12:21:20;100304.28;;;24.21;100.00
31761;BME280;18335;51.486;7.562;2022-10-28T12:23:52;100300.78;;;24.14;100.00
31761;BME280;18335;51.486;7.562;2022-10-28T12:26:34;100302.72;;;24.13;100.00
31761;BME280;18335;51.486;7.562;2022-10-28T12:29:09;100294.38;;;24.13;100.00
31761;BME280;18335;51.486;7.562;2022-10-28T12:31:43;100307.25;;;24.31;100.00
31761;BME280;18335;51.486;7.562;2022-10-28T12:34:13;100295.81;;;24.33;100.00
31761;BME280;18335;51.486;7.562;2022-10-28T12:36:45;100302.16;;;24.45;100.00
31761;BME280;18335;51.486;7.562;2022-10-28T12:39:17;100301.47;;;24.54;100.00
31761;BME280;18335;51.486;7.562;2022-10-28T12:41:53;100301.53;;;24.59;100.00
31761;BME280;18335;51.486;7.562;2022-10-28T12:44:21;100294.88;;;24.60;100.00
31761;BME280;18335;51.486;7.562;2022-10-28T12:46:56;100304.00;;;24.56;100.00
31761;BME280;18335;51.486;7.562;2022-10-28T12:49:34;100291.97;;;24.72;100.00
31761;BME280;18335;51.486;7.562;2022-10-28T12:52:12;100286.31;;;24.67;100.00
31761;BME280;18335;51.486;7.562;2022-10-28T12:54:50;100288.06;;;24.73;100.00
31761;BME280;18335;51.486;7.562;2022-10-28T12:57:21;100281.31;;;24.69;100.00
31761;BME280;18335;51.486;7.562;2022-10-28T12:59:52;100276.91;;;24.73;100.00
31761;BME280;18335;51.486;7.562;2022-10-28T13:02:25;100277.22;;;24.76;100.00
31761;BME280;18335;51.486;7.562;2022-10-28T13:04:54;100283.03;;;24.70;100.00